Change the Weather History Date:

Tuesday, March 11, 2014

  Actual Average Record
Temperature  
Mean Temperature 57 °F -  
Max Temperature 77 °F 59 °F 78 °F (1990)
Min Temperature 37 °F 31 °F 18 °F (1965)
Degree Days  
Heating Degree Days 8    
Growing Degree Days 7 (Base 50)    
Moisture  
Dew Point 34 °F    
Average Humidity 44    
Maximum Humidity 81    
Minimum Humidity 19    
Precipitation  
Precipitation 0.00 in - - ()
Sea Level Pressure  
Sea Level Pressure 29.80 in    
Wind  
Wind Speed 3 mph (SW)    
Max Wind Speed 13 mph    
Max Gust Speed 17 mph    
Visibility 10 miles    
Events      
Averages and records for this station are not official NWS values.
T = Trace of Precipitation, MM = Missing Value Source: NWS Daily Summary

Daily Weather History Graph

Daily Weather History Graph

Search for Another Location

Airport or City:

Trip Planner

Search our weather history database for the weather conditions in past years. The results will help you decide how hot, cold, wet, or windy it might be!

Date:

Astronomy

Mar. 11, 2014 Rise Set
Actual Time 7:40 AM EDT 7:28 PM EDT
Civil Twilight 7:15 AM EDT 7:53 PM EDT
Nautical Twilight 6:45 AM EDT 8:23 PM EDT
Astronomical Twilight 6:15 AM EDT 8:53 PM EDT
Moon 3:09 PM EDT (3/11) 4:27 AM EDT (3/11)
Length of Visible Light 12h 38m
Length of Day
11h 47m
Waxing Gibbous, 78% of the Moon is Illuminated
Mar 11
Waxing Gibbous
Mar 16
Full
Mar 23
Last Quarter
Mar 30
New
Apr 7
First Quarter

Hourly Weather History & Observations

Time (EDT) Temp. Windchill Dew Point Humidity Pressure Visibility Wind Dir Wind Speed Gust Speed Precip Events Conditions
12:15 AM 53.6 °F - 33.8 °F 47% 29.88 in 10.0 mi NW 3.5 mph - N/A   Clear
12:35 AM 50.0 °F - 33.8 °F 54% 29.88 in 10.0 mi West 3.5 mph - N/A   Clear
12:55 AM 48.2 °F - 33.8 °F 58% 29.88 in 10.0 mi Calm Calm - N/A   Clear
1:15 AM 46.4 °F - 33.8 °F 62% 29.88 in 10.0 mi Calm Calm - N/A   Clear
1:35 AM 46.4 °F - 33.8 °F 62% 29.87 in 10.0 mi Calm Calm - N/A   Clear
2:00 AM 44.6 °F - 33.8 °F 66% 29.88 in 10.0 mi Calm Calm - N/A   Clear
2:15 AM 42.8 °F - 33.8 °F 70% 29.88 in 10.0 mi Calm Calm - N/A   Clear
2:35 AM 42.8 °F - 33.8 °F 70% 29.88 in 10.0 mi Calm Calm - N/A   Clear
2:55 AM 41.0 °F - 33.8 °F 76% 29.87 in 10.0 mi Calm Calm - N/A   Clear
3:15 AM 41.0 °F - 32.0 °F 70% 29.86 in 10.0 mi Calm Calm - N/A   Clear
3:35 AM 41.0 °F - 33.8 °F 76% 29.87 in 10.0 mi Calm Calm - N/A   Clear
3:55 AM 42.8 °F 41.1 °F 33.8 °F 70% 29.86 in 10.0 mi NW 3.5 mph - N/A   Clear
4:15 AM 42.8 °F - 33.8 °F 70% 29.86 in 10.0 mi Calm Calm - N/A   Clear
4:35 AM 41.0 °F 39.0 °F 33.8 °F 76% 29.85 in 10.0 mi NW 3.5 mph - N/A   Clear
4:55 AM 41.0 °F - 33.8 °F 76% 29.85 in 10.0 mi Calm Calm - N/A   Clear
5:15 AM 39.2 °F - 33.8 °F 81% 29.84 in 10.0 mi Calm Calm - N/A   Clear
5:35 AM 41.0 °F 38.0 °F 33.8 °F 76% 29.83 in 10.0 mi West 4.6 mph - N/A   Clear
5:55 AM 48.2 °F - 33.8 °F 58% 29.83 in 10.0 mi WNW 6.9 mph - N/A   Clear
6:15 AM 39.2 °F - 32.0 °F 75% 29.83 in 10.0 mi Calm Calm - N/A   Clear
6:30 AM 37.4 °F - 32.0 °F 81% 29.84 in 10.0 mi Calm Calm - N/A   Clear
6:55 AM 37.4 °F - 32.0 °F 81% 29.84 in 10.0 mi Calm Calm - N/A   Clear
7:15 AM 41.0 °F 39.0 °F 33.8 °F 76% 29.84 in 10.0 mi West 3.5 mph - N/A   Clear
7:35 AM 41.0 °F - 32.0 °F 70% 29.84 in 10.0 mi Calm Calm - N/A   Clear
7:55 AM 42.8 °F - 33.8 °F 70% 29.85 in 10.0 mi Calm Calm - N/A   Clear
8:15 AM 46.4 °F - 33.8 °F 62% 29.85 in 10.0 mi Calm Calm - N/A   Clear
8:35 AM 50.0 °F - 33.8 °F 54% 29.85 in 10.0 mi Calm Calm - N/A   Clear
8:55 AM 51.8 °F - 33.8 °F 50% 29.85 in 10.0 mi Calm Calm - N/A   Clear
9:15 AM 53.6 °F - 35.6 °F 51% 29.86 in 10.0 mi Calm Calm - N/A   Clear
9:35 AM 55.4 °F - 39.2 °F 54% 29.85 in 10.0 mi SSW 3.5 mph - N/A   Clear
9:55 AM 59.0 °F - 37.4 °F 45% 29.85 in 10.0 mi SSW 3.5 mph - N/A   Clear
10:15 AM 60.8 °F - 37.4 °F 42% 29.86 in 10.0 mi SW 4.6 mph - N/A   Clear
10:35 AM 62.6 °F - 37.4 °F 39% 29.86 in 10.0 mi SW 4.6 mph - N/A   Clear
10:55 AM 62.6 °F - 35.6 °F 37% 29.85 in 10.0 mi Calm Calm - N/A   Clear
11:15 AM 64.4 °F - 35.6 °F 34% 29.85 in 10.0 mi SSW 3.5 mph - N/A   Clear
11:35 AM 66.2 °F - 33.8 °F 30% 29.85 in 10.0 mi Calm Calm - N/A   Clear
11:55 AM 68.0 °F - 33.8 °F 28% 29.84 in 10.0 mi Calm Calm - N/A   Clear
12:15 PM 68.0 °F - 35.6 °F 30% 29.83 in 10.0 mi Calm Calm - N/A   Clear
12:35 PM 68.0 °F - 33.8 °F 28% 29.83 in 10.0 mi Calm Calm - N/A   Clear
12:55 PM 71.6 °F - 33.8 °F 25% 29.82 in 10.0 mi WSW 4.6 mph - N/A   Clear
1:15 PM 71.6 °F - 33.8 °F 25% 29.81 in 10.0 mi SSW 5.8 mph - N/A   Clear
1:35 PM 71.6 °F - 33.8 °F 25% 29.80 in 10.0 mi South 5.8 mph - N/A   Clear
1:55 PM 71.6 °F - 33.8 °F 25% 29.78 in 10.0 mi SW 5.8 mph - N/A   Clear
2:15 PM 71.6 °F - 32.0 °F 23% 29.77 in 10.0 mi South 5.8 mph - N/A   Clear
2:35 PM 73.4 °F - 33.8 °F 23% 29.77 in 10.0 mi SSW 11.5 mph - N/A   Clear
2:55 PM 73.4 °F - 32.0 °F 22% 29.75 in 10.0 mi Calm Calm - N/A   Clear
3:15 PM 73.4 °F - 32.0 °F 22% 29.75 in 10.0 mi SSW 3.5 mph - N/A   Clear
3:35 PM 77.0 °F - 33.8 °F 21% 29.74 in 10.0 mi South 9.2 mph - N/A   Clear
3:55 PM 77.0 °F - 33.8 °F 21% 29.73 in 10.0 mi South 8.1 mph 17.3 mph N/A   Clear
4:15 PM 77.0 °F - 33.8 °F 21% 29.73 in 10.0 mi SSW 9.2 mph - N/A   Clear
4:35 PM 77.0 °F - 32.0 °F 19% 29.73 in 10.0 mi SW 4.6 mph - N/A   Clear
4:55 PM 77.0 °F - 32.0 °F 19% 29.73 in 10.0 mi SSW 9.2 mph - N/A   Clear
5:15 PM 77.0 °F - 32.0 °F 19% 29.72 in 10.0 mi SSW 9.2 mph - N/A   Clear
5:35 PM 77.0 °F - 33.8 °F 21% 29.72 in 10.0 mi SSW 12.7 mph - N/A   Clear
5:55 PM 75.2 °F - 33.8 °F 22% 29.71 in 10.0 mi South 6.9 mph - N/A   Clear
6:15 PM 73.4 °F - 33.8 °F 23% 29.72 in 10.0 mi South 6.9 mph - N/A   Clear
6:35 PM 73.4 °F - 32.0 °F 22% 29.72 in 10.0 mi South 10.4 mph - N/A   Clear
6:55 PM 71.6 °F - 32.0 °F 23% 29.73 in 10.0 mi South 6.9 mph - N/A   Clear
7:15 PM 69.8 °F - 33.8 °F 27% 29.73 in 10.0 mi South 4.6 mph - N/A   Clear
7:35 PM 69.8 °F - 32.0 °F 25% 29.73 in 10.0 mi South 4.6 mph - N/A   Clear
7:55 PM 68.0 °F - 32.0 °F 26% 29.74 in 10.0 mi Calm Calm - N/A   Clear
8:15 PM 64.4 °F - 32.0 °F 30% 29.75 in 10.0 mi SW 3.5 mph - N/A   Clear
8:35 PM 64.4 °F - 33.8 °F 32% 29.74 in 10.0 mi SW 4.6 mph - N/A   Clear
8:55 PM 64.4 °F - 33.8 °F 32% 29.74 in 10.0 mi WSW 3.5 mph - N/A   Clear
9:15 PM 62.6 °F - 32.0 °F 32% 29.75 in 10.0 mi WSW 4.6 mph - N/A   Clear
9:35 PM 62.6 °F - 33.8 °F 34% 29.75 in 10.0 mi West 3.5 mph - N/A   Clear
9:55 PM 62.6 °F - 33.8 °F 34% 29.76 in 10.0 mi West 3.5 mph - N/A   Clear
10:15 PM 59.0 °F - 33.8 °F 39% 29.76 in 10.0 mi Calm Calm - N/A   Clear
10:35 PM 59.0 °F - 33.8 °F 39% 29.76 in 10.0 mi Calm Calm - N/A   Clear
10:55 PM 55.4 °F - 33.8 °F 44% 29.76 in 10.0 mi NW 3.5 mph - N/A   Clear
11:15 PM 55.4 °F - 33.8 °F 44% 29.75 in 10.0 mi Calm Calm - N/A   Clear
11:35 PM 55.4 °F - 33.8 °F 44% 29.75 in 10.0 mi Calm Calm - N/A   Clear
11:55 PM 53.6 °F - 32.0 °F 44% 29.74 in 10.0 mi Calm Calm - N/A   Clear